createdAt,value
2018-06-28T00:01:13.451Z,5.27
2018-06-28T00:03:42.189Z,5.67
2018-06-28T00:06:10.855Z,6.00
2018-06-28T00:08:39.619Z,5.37
2018-06-28T00:11:08.628Z,5.47
2018-06-28T00:13:37.410Z,5.43
2018-06-28T00:16:06.274Z,6.23
2018-06-28T00:18:35.038Z,5.87
2018-06-28T00:21:03.799Z,5.80
2018-06-28T00:23:32.558Z,5.40
2018-06-28T00:26:01.350Z,5.33
2018-06-28T00:28:30.063Z,5.80
2018-06-28T00:30:58.722Z,4.87
2018-06-28T00:33:27.404Z,5.53
2018-06-28T00:35:56.092Z,5.53
2018-06-28T00:38:24.840Z,4.97
2018-06-28T00:40:53.528Z,6.30
2018-06-28T00:43:22.173Z,4.73
2018-06-28T00:45:50.802Z,5.50
2018-06-28T00:48:19.477Z,5.20
2018-06-28T00:50:48.150Z,5.03
2018-06-28T00:53:16.774Z,5.30
2018-06-28T00:55:45.435Z,5.30
2018-06-28T00:58:14.121Z,4.90
2018-06-28T01:00:42.769Z,5.67
2018-06-28T01:03:11.520Z,5.67
2018-06-28T01:05:40.230Z,5.87
2018-06-28T01:08:09.012Z,5.63
2018-06-28T01:10:37.713Z,5.60
2018-06-28T01:13:06.764Z,5.50
2018-06-28T01:15:35.500Z,4.73
2018-06-28T01:18:04.254Z,5.10
2018-06-28T01:20:33.016Z,4.77
2018-06-28T01:23:01.740Z,5.40
2018-06-28T01:25:30.509Z,4.77
2018-06-28T01:27:59.124Z,4.90
2018-06-28T01:30:28.026Z,4.83
2018-06-28T01:32:56.748Z,5.10
2018-06-28T01:35:25.514Z,4.60
2018-06-28T01:37:54.160Z,4.67
2018-06-28T01:40:23.157Z,4.67
2018-06-28T01:43:02.694Z,4.40
2018-06-28T01:45:31.407Z,4.80
2018-06-28T01:48:00.077Z,4.90
2018-06-28T01:50:28.742Z,5.10
2018-06-28T01:52:57.370Z,5.63
2018-06-28T01:55:26.045Z,4.73
2018-06-28T01:57:54.708Z,5.37
2018-06-28T02:00:23.358Z,4.80
2018-06-28T02:02:52.518Z,5.20
2018-06-28T02:05:21.275Z,4.90
2018-06-28T02:07:49.966Z,4.93
2018-06-28T02:10:18.672Z,5.27
2018-06-28T02:12:47.373Z,4.83
2018-06-28T02:15:16.010Z,4.80
2018-06-28T02:17:44.651Z,5.30
2018-06-28T02:20:13.382Z,5.07
2018-06-28T02:22:42.005Z,5.03
2018-06-28T02:25:10.678Z,5.47
2018-06-28T02:27:39.376Z,5.07
2018-06-28T02:30:08.075Z,5.33
2018-06-28T02:32:36.803Z,5.07
2018-06-28T02:35:05.674Z,5.10
2018-06-28T02:37:34.457Z,5.60
2018-06-28T02:40:03.164Z,5.17
2018-06-28T02:42:33.010Z,5.43
2018-06-28T02:45:01.693Z,5.27
2018-06-28T02:47:30.373Z,4.80
2018-06-28T02:49:59.579Z,4.80
2018-06-28T02:52:28.398Z,5.20
2018-06-28T02:54:57.423Z,4.87
2018-06-28T02:57:26.302Z,5.50
2018-06-28T02:59:55.018Z,5.53
2018-06-28T03:02:23.990Z,5.10
2018-06-28T03:04:52.841Z,5.57
2018-06-28T03:07:21.615Z,5.70
2018-06-28T03:09:50.389Z,4.93
2018-06-28T03:12:19.359Z,5.17
2018-06-28T03:14:48.140Z,5.67
2018-06-28T03:17:16.851Z,5.70
2018-06-28T03:19:45.689Z,5.37
2018-06-28T03:22:14.386Z,5.53
2018-06-28T03:24:43.219Z,5.50
2018-06-28T03:27:11.868Z,5.83
2018-06-28T03:29:40.610Z,6.00
2018-06-28T03:32:09.230Z,6.23
2018-06-28T03:34:37.969Z,5.70
2018-06-28T03:37:06.694Z,5.57
2018-06-28T03:39:35.388Z,5.90
2018-06-28T03:42:04.163Z,5.27
2018-06-28T03:44:32.871Z,5.53
2018-06-28T03:47:01.603Z,5.73
2018-06-28T03:49:30.398Z,5.90
2018-06-28T03:51:59.195Z,6.10
2018-06-28T03:54:28.220Z,5.40
2018-06-28T03:56:56.931Z,5.90
2018-06-28T03:59:25.684Z,5.10
2018-06-28T04:01:54.474Z,6.17
2018-06-28T04:04:23.221Z,6.20
2018-06-28T04:06:51.941Z,6.43
2018-06-28T04:09:20.681Z,6.33
2018-06-28T04:11:49.411Z,6.23
2018-06-28T04:14:18.128Z,6.57
2018-06-28T04:16:46.880Z,7.00
2018-06-28T04:19:15.565Z,6.73
2018-06-28T04:21:44.349Z,7.13
2018-06-28T04:24:13.098Z,6.77
2018-06-28T04:26:41.917Z,7.17
2018-06-28T04:29:10.684Z,7.10
2018-06-28T04:31:39.599Z,7.00
2018-06-28T04:34:08.450Z,7.13
2018-06-28T04:36:37.211Z,6.73
2018-06-28T04:39:08.595Z,7.57
2018-06-28T04:41:37.502Z,7.60
2018-06-28T04:44:06.187Z,8.37
2018-06-28T04:46:34.923Z,7.87
2018-06-28T04:49:03.653Z,7.37
2018-06-28T04:51:32.440Z,8.90
2018-06-28T04:54:01.177Z,7.80
2018-06-28T04:56:29.990Z,7.83
2018-06-28T04:58:58.787Z,8.47
2018-06-28T05:01:27.735Z,8.13
2018-06-28T05:03:56.938Z,8.80
2018-06-28T05:06:25.730Z,8.37
2018-06-28T05:08:54.501Z,8.27
2018-06-28T05:11:23.251Z,9.17
2018-06-28T05:13:51.987Z,8.93
2018-06-28T05:16:20.702Z,8.23
2018-06-28T05:18:49.368Z,8.10
2018-06-28T05:21:18.089Z,9.27
2018-06-28T05:23:46.911Z,8.00
2018-06-28T05:26:15.768Z,8.10
2018-06-28T05:28:44.591Z,8.70
2018-06-28T05:31:13.382Z,8.57
2018-06-28T05:33:42.200Z,8.87
2018-06-28T05:36:10.928Z,8.47
2018-06-28T05:38:39.730Z,8.47
2018-06-28T05:41:08.505Z,7.67
2018-06-28T05:43:37.342Z,8.23
2018-06-28T05:46:06.249Z,8.68
2018-06-28T05:48:35.031Z,9.53
2018-06-28T05:51:03.872Z,9.00
2018-06-28T05:53:32.639Z,9.03
2018-06-28T05:56:01.491Z,9.55
2018-06-28T05:58:30.224Z,9.45
2018-06-28T06:00:58.964Z,9.75
2018-06-28T06:03:27.752Z,9.25
2018-06-28T06:05:56.558Z,9.58
2018-06-28T06:08:25.244Z,9.43
2018-06-28T06:10:53.959Z,8.75
2018-06-28T06:13:22.649Z,8.85
2018-06-28T06:15:51.408Z,9.00
2018-06-28T06:18:20.097Z,9.08
2018-06-28T06:20:48.793Z,8.08
2018-06-28T06:23:17.501Z,9.38
2018-06-28T06:25:46.286Z,9.13
2018-06-28T06:28:14.921Z,9.50
2018-06-28T06:30:43.816Z,9.13
2018-06-28T06:33:12.389Z,9.38
2018-06-28T06:35:41.154Z,9.30
2018-06-28T06:38:09.879Z,12.93
2018-06-28T06:40:38.600Z,9.45
2018-06-28T06:43:07.403Z,9.40
2018-06-28T06:45:36.105Z,8.38
2018-06-28T06:48:04.824Z,8.58
2018-06-28T06:50:33.447Z,10.25
2018-06-28T06:53:02.059Z,9.93
2018-06-28T06:55:30.769Z,10.05
2018-06-28T06:57:59.735Z,8.78
2018-06-28T07:00:28.577Z,8.10
2018-06-28T07:02:57.351Z,9.03
2018-06-28T07:05:26.283Z,10.00
2018-06-28T07:07:55.252Z,9.60
2018-06-28T07:10:24.125Z,10.00
2018-06-28T07:12:53.028Z,10.68
2018-06-28T07:15:21.797Z,10.32
2018-06-28T07:17:50.607Z,10.53
2018-06-28T07:20:20.829Z,9.48
2018-06-28T07:22:49.840Z,11.65
2018-06-28T07:25:19.021Z,10.45
2018-06-28T07:27:48.098Z,10.60
2018-06-28T07:30:23.590Z,9.45
2018-06-28T07:32:52.395Z,10.23
2018-06-28T07:35:21.173Z,8.75
2018-06-28T07:37:50.060Z,8.80
2018-06-28T07:40:18.721Z,9.33
2018-06-28T07:42:47.408Z,11.00
2018-06-28T07:45:16.078Z,9.83
2018-06-28T07:47:44.762Z,10.65
2018-06-28T07:50:13.468Z,11.05
2018-06-28T07:52:42.124Z,11.25
2018-06-28T07:55:10.778Z,10.72
2018-06-28T07:57:39.466Z,10.30
2018-06-28T08:00:08.517Z,10.58
2018-06-28T08:02:37.813Z,11.28
2018-06-28T08:05:06.735Z,11.33
2018-06-28T08:07:35.546Z,10.10
2018-06-28T08:10:04.439Z,10.50
2018-06-28T08:12:37.165Z,11.30
2018-06-28T08:15:06.027Z,10.70
2018-06-28T08:17:34.728Z,11.45
2018-06-28T08:20:03.853Z,11.00
2018-06-28T08:22:32.587Z,10.48
2018-06-28T08:25:01.383Z,10.35
2018-06-28T08:27:30.298Z,9.53
2018-06-28T08:29:59.229Z,10.95
2018-06-28T08:32:27.976Z,10.25
2018-06-28T08:34:56.844Z,10.80
2018-06-28T08:37:25.558Z,10.40
2018-06-28T08:39:54.339Z,10.90
2018-06-28T08:42:25.276Z,11.68
2018-06-28T08:44:54.764Z,10.78
2018-06-28T08:47:23.543Z,11.40
2018-06-28T08:49:52.752Z,10.15
2018-06-28T08:52:21.462Z,10.08
2018-06-28T08:54:51.506Z,11.00
2018-06-28T08:57:21.779Z,11.73
2018-06-28T09:00:03.616Z,11.53
2018-06-28T09:02:36.219Z,10.43
2018-06-28T09:05:06.554Z,11.70
2018-06-28T09:07:36.470Z,10.48
2018-06-28T09:10:07.072Z,10.80
2018-06-28T09:12:37.080Z,11.25
2018-06-28T09:15:07.378Z,10.88
2018-06-28T09:17:36.733Z,10.48
2018-06-28T09:20:06.873Z,9.88
2018-06-28T09:22:36.903Z,11.22
2018-06-28T09:25:08.247Z,11.65
2018-06-28T09:27:38.180Z,11.95
2018-06-28T09:30:08.607Z,12.60
2018-06-28T09:32:38.199Z,12.58
2018-06-28T09:35:08.315Z,12.50
2018-06-28T09:37:37.975Z,11.20
2018-06-28T09:40:08.191Z,11.73
2018-06-28T09:42:38.639Z,10.98
2018-06-28T09:45:08.746Z,11.65
2018-06-28T09:47:38.071Z,11.45
2018-06-28T09:50:07.456Z,11.48
2018-06-28T09:52:36.517Z,11.33
2018-06-28T09:55:05.773Z,11.38
2018-06-28T09:57:34.943Z,14.23
2018-06-28T10:00:04.624Z,12.53
2018-06-28T10:02:33.867Z,12.53
2018-06-28T10:05:03.186Z,13.22
2018-06-28T10:07:32.593Z,14.15
2018-06-28T10:10:01.980Z,13.13
2018-06-28T10:12:31.158Z,12.90
2018-06-28T10:15:00.480Z,13.65
2018-06-28T10:17:29.833Z,13.30
2018-06-28T10:19:59.487Z,13.50
2018-06-28T10:22:29.180Z,13.13
2018-06-28T10:24:59.087Z,13.88
2018-06-28T10:27:28.647Z,14.18
2018-06-28T10:29:58.250Z,13.72
2018-06-28T10:32:27.785Z,13.15
2018-06-28T10:34:57.070Z,14.53
2018-06-28T10:37:26.799Z,14.15
2018-06-28T10:39:56.125Z,13.83
2018-06-28T10:42:25.823Z,15.00
2018-06-28T10:44:55.146Z,14.85
2018-06-28T10:47:24.704Z,14.30
2018-06-28T10:49:54.050Z,14.68
2018-06-28T10:52:23.636Z,14.90
2018-06-28T10:54:53.534Z,14.18
2018-06-28T10:57:22.908Z,14.10
2018-06-28T10:59:52.090Z,14.15
2018-06-28T11:02:21.709Z,12.85
2018-06-28T11:04:51.354Z,12.47
2018-06-28T11:07:20.702Z,13.95
2018-06-28T11:09:49.798Z,14.05
2018-06-28T11:12:19.085Z,14.73
2018-06-28T11:14:48.461Z,12.68
2018-06-28T11:17:17.957Z,13.13
2018-06-28T11:19:47.526Z,13.58
2018-06-28T11:22:16.918Z,13.05
2018-06-28T11:24:47.055Z,15.60
2018-06-28T11:27:16.639Z,14.18
2018-06-28T11:29:46.316Z,13.80
2018-06-28T11:32:16.461Z,13.32
2018-06-28T11:34:45.945Z,14.80
2018-06-28T11:37:15.356Z,13.43
2018-06-28T11:39:44.741Z,13.32
2018-06-28T11:42:15.327Z,14.40
2018-06-28T11:44:44.610Z,15.38
2018-06-28T11:47:14.008Z,15.40
2018-06-28T11:49:43.258Z,14.55
2018-06-28T11:52:12.752Z,14.63
2018-06-28T11:54:42.881Z,16.20
2018-06-28T11:57:12.781Z,14.87
2018-06-28T11:59:42.717Z,15.65
2018-06-28T12:02:12.173Z,16.12
2018-06-28T12:04:41.364Z,17.57
2018-06-28T12:07:10.717Z,18.37
2018-06-28T12:09:39.952Z,17.50
2018-06-28T12:12:09.206Z,18.32
2018-06-28T12:14:38.304Z,19.32
2018-06-28T12:17:07.712Z,18.25
2018-06-28T12:19:37.245Z,20.65
2018-06-28T12:22:06.396Z,20.25
2018-06-28T12:24:35.675Z,20.15
2018-06-28T12:27:05.725Z,18.77
2018-06-28T12:29:34.965Z,19.87
2018-06-28T12:32:04.807Z,19.32
2018-06-28T12:34:33.849Z,20.10
2018-06-28T12:37:02.890Z,19.32
2018-06-28T12:39:32.430Z,20.52
2018-06-28T12:42:01.816Z,18.77
2018-06-28T12:44:31.289Z,17.77
2018-06-28T12:47:38.427Z,15.20
2018-06-28T12:50:07.924Z,14.07
2018-06-28T12:52:45.915Z,16.62
2018-06-28T12:55:17.282Z,16.67
2018-06-28T12:57:46.920Z,15.50
2018-06-28T13:00:16.650Z,13.72
2018-06-28T13:02:46.221Z,14.25
2018-06-28T13:05:16.362Z,16.50
2018-06-28T13:07:45.639Z,15.78
2018-06-28T13:10:16.618Z,14.93
2018-06-28T13:12:45.998Z,14.87
2018-06-28T13:15:15.816Z,14.93
2018-06-28T13:17:45.152Z,14.53
2018-06-28T13:20:14.739Z,15.23
2018-06-28T13:22:43.969Z,15.08
2018-06-28T13:25:13.577Z,15.75
2018-06-28T13:27:43.126Z,16.77
2018-06-28T13:30:12.547Z,15.85
2018-06-28T13:32:41.963Z,15.05
2018-06-28T13:35:11.832Z,13.00
2018-06-28T13:37:41.856Z,13.40
2018-06-28T13:40:11.093Z,12.33
2018-06-28T13:42:40.332Z,11.88
2018-06-28T13:45:09.763Z,11.93
2018-06-28T13:47:39.040Z,10.72
2018-06-28T13:50:08.461Z,9.48
2018-06-28T13:52:37.432Z,9.85
2018-06-28T13:55:06.319Z,9.75
2018-06-28T13:57:35.393Z,10.30
2018-06-28T14:00:04.511Z,9.78
2018-06-28T14:02:33.494Z,10.35
2018-06-28T14:05:02.503Z,8.78
2018-06-28T14:07:31.656Z,9.43
2018-06-28T14:10:00.643Z,9.63
2018-06-28T14:12:29.824Z,9.60
2018-06-28T14:14:59.143Z,9.20
2018-06-28T14:17:28.200Z,9.78
2018-06-28T14:19:57.371Z,8.98
2018-06-28T14:22:26.227Z,10.43
2018-06-28T14:24:55.367Z,9.23
2018-06-28T14:27:24.442Z,11.00
2018-06-28T14:29:53.549Z,9.63
2018-06-28T14:32:22.588Z,9.50
2018-06-28T14:34:51.698Z,9.63
2018-06-28T14:37:20.790Z,8.93
2018-06-28T14:39:49.871Z,9.13
2018-06-28T14:42:18.901Z,9.80
2018-06-28T14:44:47.925Z,9.30
2018-06-28T14:47:17.163Z,9.68
2018-06-28T14:49:46.166Z,9.73
2018-06-28T14:52:15.128Z,9.30
2018-06-28T14:54:44.470Z,8.88
2018-06-28T14:57:14.191Z,10.20
2018-06-28T14:59:43.453Z,9.95
2018-06-28T15:02:12.608Z,10.00
2018-06-28T15:04:41.722Z,8.55
2018-06-28T15:07:11.030Z,9.65
2018-06-28T15:09:40.141Z,10.23
2018-06-28T15:12:09.288Z,9.18
2018-06-28T15:14:38.443Z,9.35
2018-06-28T15:17:08.398Z,9.60
2018-06-28T15:19:38.018Z,9.40
2018-06-28T15:22:11.502Z,9.78
2018-06-28T15:24:40.664Z,9.28
2018-06-28T15:27:09.949Z,10.53
2018-06-28T15:29:39.178Z,8.90
2018-06-28T15:32:08.549Z,9.78
2018-06-28T15:34:37.758Z,9.30
2018-06-28T15:37:07.264Z,9.83
2018-06-28T15:39:36.532Z,8.53
2018-06-28T15:42:05.729Z,9.13
2018-06-28T15:44:34.799Z,9.68
2018-06-28T15:47:04.036Z,8.80
2018-06-28T15:49:33.283Z,8.48
2018-06-28T15:52:02.456Z,9.50
2018-06-28T15:54:31.259Z,8.80
2018-06-28T15:57:00.602Z,10.58
2018-06-28T15:59:29.423Z,8.78
2018-06-28T16:01:58.511Z,8.58
2018-06-28T16:04:29.873Z,10.32
2018-06-28T16:07:02.283Z,16.45
2018-06-28T16:09:31.644Z,15.28
2018-06-28T16:12:01.453Z,10.85
2018-06-28T16:14:30.888Z,17.20
2018-06-28T16:17:00.165Z,20.47
2018-06-28T16:19:29.536Z,12.03
2018-06-28T16:21:59.244Z,11.12
2018-06-28T16:24:29.165Z,11.60
2018-06-28T16:26:58.945Z,11.35
2018-06-28T16:29:28.396Z,13.32
2018-06-28T16:31:58.013Z,12.25
2018-06-28T16:34:27.601Z,12.70
2018-06-28T16:36:57.063Z,17.12
2018-06-28T16:39:27.192Z,37.00
2018-06-28T16:41:56.528Z,16.05
2018-06-28T16:44:26.680Z,17.55
2018-06-28T16:46:56.201Z,14.73
2018-06-28T16:49:26.496Z,17.90
2018-06-28T16:51:55.948Z,14.33
2018-06-28T16:54:26.133Z,13.75
2018-06-28T16:56:56.226Z,11.95
2018-06-28T16:59:26.009Z,10.50
2018-06-28T17:01:55.579Z,14.53
2018-06-28T17:04:26.316Z,10.87
2018-06-28T17:06:56.221Z,9.23
2018-06-28T17:09:25.968Z,10.45
2018-06-28T17:11:55.991Z,10.68
2018-06-28T17:14:25.247Z,12.20
2018-06-28T17:16:54.643Z,12.75
2018-06-28T17:19:25.362Z,15.13
2018-06-28T17:21:56.596Z,10.07
2018-06-28T17:24:26.055Z,12.13
2018-06-28T17:26:56.558Z,15.60
2018-06-28T17:29:26.060Z,18.10
2018-06-28T17:31:55.810Z,18.07
2018-06-28T17:34:25.509Z,17.17
2018-06-28T17:36:55.712Z,25.80
2018-06-28T17:39:24.978Z,15.30
2018-06-28T17:41:54.444Z,15.83
2018-06-28T17:44:23.910Z,12.80
2018-06-28T17:46:53.217Z,15.03
2018-06-28T17:49:22.417Z,16.77
2018-06-28T17:51:51.549Z,16.43
2018-06-28T17:54:20.796Z,14.43
2018-06-28T17:56:50.279Z,12.78
2018-06-28T17:59:19.628Z,12.90
2018-06-28T18:01:48.878Z,22.90
2018-06-28T18:04:18.109Z,12.65
2018-06-28T18:06:47.188Z,12.80
2018-06-28T18:09:16.383Z,13.13
2018-06-28T18:11:45.756Z,12.80
2018-06-28T18:14:15.163Z,12.55
2018-06-28T18:16:44.279Z,14.10
2018-06-28T18:19:13.491Z,14.95
2018-06-28T18:21:44.179Z,13.50
2018-06-28T18:24:14.557Z,14.38
2018-06-28T18:26:43.680Z,13.73
2018-06-28T18:29:13.277Z,13.93
2018-06-28T18:31:42.782Z,14.37
2018-06-28T18:34:12.264Z,14.27
2018-06-28T18:36:41.601Z,14.55
2018-06-28T18:39:11.477Z,15.00
2018-06-28T18:41:41.418Z,22.27
2018-06-28T18:44:11.169Z,15.37
2018-06-28T18:46:41.921Z,13.75
2018-06-28T18:49:11.539Z,14.68
2018-06-28T18:51:41.580Z,28.98
2018-06-28T18:54:10.788Z,17.80
2018-06-28T18:56:40.651Z,18.27
2018-06-28T18:59:10.078Z,18.40
2018-06-28T19:01:39.700Z,17.27
2018-06-28T19:04:09.241Z,22.73
2018-06-28T19:06:39.388Z,18.23
2018-06-28T19:09:10.896Z,15.55
2018-06-28T19:11:40.389Z,18.32
2018-06-28T19:14:14.888Z,28.75
2018-06-28T19:16:49.421Z,34.70
2018-06-28T19:19:18.890Z,32.33
2018-06-28T19:21:53.571Z,23.00
2018-06-28T19:24:23.562Z,21.70
2018-06-28T19:26:52.698Z,61.08
2018-06-28T19:29:27.341Z,87.45
2018-06-28T19:32:02.157Z,24.63
2018-06-28T19:34:31.715Z,30.43
2018-06-28T19:37:01.477Z,21.15
2018-06-28T19:39:36.264Z,30.20
2018-06-28T19:43:09.439Z,20.10
2018-06-28T19:45:40.201Z,20.60
2018-06-28T19:48:10.324Z,20.57
2018-06-28T19:50:45.649Z,22.05
2018-06-28T19:53:16.934Z,20.97
2018-06-28T19:55:46.933Z,18.30
2018-06-28T19:58:16.884Z,16.57
2018-06-28T20:00:52.515Z,16.80
2018-06-28T20:03:28.247Z,17.90
2018-06-28T20:05:58.231Z,16.30
2018-06-28T20:08:28.218Z,16.87
2018-06-28T20:10:58.052Z,16.48
2018-06-28T20:13:33.062Z,17.02
2018-06-28T20:16:07.537Z,17.93
2018-06-28T20:18:41.982Z,17.00
2018-06-28T20:21:11.940Z,17.10
2018-06-28T20:23:41.811Z,18.63
2018-06-28T20:26:16.598Z,18.55
2018-06-28T20:28:51.505Z,16.33
2018-06-28T20:31:26.324Z,17.57
2018-06-28T20:34:01.218Z,16.70
2018-06-28T20:36:31.766Z,17.80
2018-06-28T20:39:03.453Z,18.82
2018-06-28T20:41:38.054Z,17.12
2018-06-28T20:44:13.552Z,17.43
2018-06-28T20:46:43.662Z,18.50
2018-06-28T20:49:13.982Z,17.60
2018-06-28T20:51:46.726Z,20.07
2018-06-28T20:54:17.612Z,17.83
2018-06-28T20:56:48.461Z,19.47
2018-06-28T20:59:20.149Z,20.48
2018-06-28T21:01:49.668Z,19.27
2018-06-28T21:04:19.182Z,16.37
2018-06-28T21:06:48.581Z,18.63
2018-06-28T21:09:18.408Z,19.47
2018-06-28T21:11:48.806Z,18.87
2018-06-28T21:14:18.122Z,21.17
2018-06-28T21:16:47.477Z,20.23
2018-06-28T21:19:16.877Z,19.50
2018-06-28T21:21:46.477Z,19.10
2018-06-28T21:24:15.778Z,21.37
2018-06-28T21:26:45.045Z,19.63
2018-06-28T21:29:14.415Z,26.70
2018-06-28T21:31:43.946Z,37.00
2018-06-28T21:34:13.303Z,25.40
2018-06-28T21:36:42.714Z,26.83
2018-06-28T21:39:12.437Z,23.03
2018-06-28T21:41:41.741Z,22.43
2018-06-28T21:44:11.108Z,32.60
2018-06-28T21:46:40.506Z,24.37
2018-06-28T21:49:09.737Z,25.00
2018-06-28T21:51:39.126Z,24.07
2018-06-28T21:54:08.509Z,22.20
2018-06-28T21:56:38.001Z,22.73
2018-06-28T21:59:07.364Z,22.30
2018-06-28T22:01:37.070Z,21.27
2018-06-28T22:04:06.516Z,19.97
2018-06-28T22:06:35.806Z,21.13
2018-06-28T22:09:05.926Z,20.83
2018-06-28T22:11:35.258Z,19.97
2018-06-28T22:14:04.646Z,20.53
2018-06-28T22:16:33.933Z,19.30
2018-06-28T22:19:03.477Z,18.10
2018-06-28T22:21:32.988Z,18.20
2018-06-28T22:24:02.433Z,19.50
2018-06-28T22:26:31.754Z,21.10
2018-06-28T22:29:01.097Z,20.83
2018-06-28T22:31:30.542Z,20.57
2018-06-28T22:34:00.212Z,19.00
2018-06-28T22:36:29.737Z,18.93
2018-06-28T22:39:00.038Z,20.00
2018-06-28T22:41:29.562Z,18.97
2018-06-28T22:43:59.377Z,25.30
2018-06-28T22:46:30.009Z,22.50
2018-06-28T22:48:59.928Z,21.10
2018-06-28T22:51:33.512Z,20.87
2018-06-28T22:54:03.075Z,19.23
2018-06-28T22:56:32.618Z,20.13
2018-06-28T22:59:02.111Z,18.07
2018-06-28T23:01:31.650Z,19.20
2018-06-28T23:04:01.071Z,17.70
2018-06-28T23:06:30.822Z,20.20
2018-06-28T23:09:00.096Z,21.07
2018-06-28T23:11:29.264Z,21.13
2018-06-28T23:13:58.622Z,20.00
2018-06-28T23:16:27.849Z,20.03
2018-06-28T23:18:57.346Z,21.67
2018-06-28T23:21:26.575Z,19.97
2018-06-28T23:23:55.722Z,20.43
2018-06-28T23:26:24.914Z,18.10
2018-06-28T23:28:54.428Z,18.70
2018-06-28T23:31:24.070Z,17.07
2018-06-28T23:33:54.105Z,19.63
2018-06-28T23:36:24.417Z,19.67
2018-06-28T23:38:55.594Z,20.27
2018-06-28T23:41:25.510Z,19.93
2018-06-28T23:44:07.865Z,20.10
2018-06-28T23:46:37.942Z,18.33
2018-06-28T23:49:13.677Z,17.23
2018-06-28T23:51:43.744Z,18.93
2018-06-28T23:54:16.875Z,17.87
2018-06-28T23:56:51.558Z,19.70
2018-06-28T23:59:41.285Z,18.75
